X  Fermer Données météorologiques d'aviation de Metar     LFQQ Lille-Lesquin Airport
Température
12°C Température
8°C Point de rosée
77% Humidité



Vent
3 KM/H
2 MPH
1 M/S
2 KTS



Calme
Nord
Conditions actuelles

Clair Clair
Pression 1007.92 (hPa) - 29.76 (inHg)
Visibilité 6.2 (mile) - 10 (km)
Aéroport
Code de l'aéroport LFQQ

Emplacement: Lille-Lesquin Airport
Distance: 15 (km)

Metar:
LFQQ 102330Z AUTO VRB02KT CAVOK 12/08 Q1008 NOSIG

Temps: 11-05-2021 01:30 CEST